Time;durP1;ratioP1;P1;durP2;ratioP2;P2;SDS_P1;SDS_P2;PMS_P1;PMS_P2;Temp;Humidity;BMP_temperature;BMP_pressure;BME280_temperature;BME280_humidity;BME280_pressure;Samples;Min_cycle;Max_cycle;Signal;HPM_P1;HPM_P2
2021/07/12 00:02:09;;;;;;;7.60;5.37;;;;;;;;;;5095291;28;20423;-68
2021/07/12 00:04:35;;;;;;;6.30;4.47;;;;;;;;;;5093371;28;20787;-68
2021/07/12 00:07:01;;;;;;;6.53;4.90;;;;;;;;;;5114992;22;20842;-70
2021/07/12 00:09:28;;;;;;;6.70;5.03;;;;;;;;;;5077104;28;20506;-69
2021/07/12 00:11:54;;;;;;;7.83;5.00;;;;;;;;;;5093091;28;20443;-69
2021/07/12 00:14:20;;;;;;;7.90;5.80;;;;;;;;;;5086496;28;20437;-69
2021/07/12 00:16:46;;;;;;;8.33;4.70;;;;;;;;;;5069404;28;20421;-70
2021/07/12 00:19:12;;;;;;;9.10;5.20;;;;;;;;;;5053670;28;20421;-68
2021/07/12 00:21:38;;;;;;;9.30;5.00;;;;;;;;;;5054341;28;20421;-69
2021/07/12 00:24:04;;;;;;;6.80;5.10;;;;;;;;;;5054172;28;20417;-68
2021/07/12 00:26:30;;;;;;;6.20;3.87;;;;;;;;;;5087679;28;20436;-69
2021/07/12 00:28:56;;;;;;;7.07;4.70;;;;;;;;;;5093851;28;20507;-68
2021/07/12 00:31:23;;;;;;;5.67;4.43;;;;;;;;;;5073370;28;20448;-69
2021/07/12 00:33:49;;;;;;;5.67;4.67;;;;;;;;;;5073647;28;20405;-69
2021/07/12 00:36:15;;;;;;;6.23;5.23;;;;;;;;;;5072821;28;20800;-69
2021/07/12 00:38:41;;;;;;;5.30;4.50;;;;;;;;;;5073473;28;20474;-69
2021/07/12 00:41:07;;;;;;;5.13;4.40;;;;;;;;;;5072881;28;20520;-69
2021/07/12 00:43:35;;;;;;;7.33;4.33;;;;;;;;;;5072317;28;20492;-69
2021/07/12 00:46:01;;;;;;;8.13;4.87;;;;;;;;;;5072594;28;20433;-69
2021/07/12 00:48:28;;;;;;;6.70;4.87;;;;;;;;;;5073671;28;20440;-68
2021/07/12 00:50:55;;;;;;;5.70;4.17;;;;;;;;;;5056283;28;21045;-69
2021/07/12 00:53:21;;;;;;;7.40;5.00;;;;;;;;;;5053224;28;20414;-69
2021/07/12 00:55:48;;;;;;;11.73;4.10;;;;;;;;;;5065471;28;20805;-68
2021/07/12 00:58:15;;;;;;;7.30;5.00;;;;;;;;;;5073049;28;20424;-69
2021/07/12 01:00:44;;;;;;;5.70;4.67;;;;;;;;;;5072204;28;20425;-69
2021/07/12 01:03:11;;;;;;;7.00;4.90;;;;;;;;;;5073008;28;20499;-69
2021/07/12 01:05:38;;;;;;;6.20;4.93;;;;;;;;;;5072109;28;20490;-69
2021/07/12 01:08:04;;;;;;;6.70;3.47;;;;;;;;;;5071640;28;20455;-69
2021/07/12 01:10:30;;;;;;;4.80;3.53;;;;;;;;;;5071266;28;20551;-69
2021/07/12 01:13:15;;;;;;;7.13;4.37;;;;;;;;;;5070516;28;20764;-69
2021/07/12 01:16:16;;;;;;;5.00;3.50;;;;;;;;;;5079436;28;20788;-69
2021/07/12 01:19:07;;;;;;;6.77;4.33;;;;;;;;;;5011816;28;20422;-70
2021/07/12 01:21:52;;;;;;;8.17;3.80;;;;;;;;;;5031134;28;20437;-69
2021/07/12 01:24:30;;;;;;;4.60;3.87;;;;;;;;;;5052735;28;20823;-69
2021/07/12 01:27:02;;;;;;;6.30;4.00;;;;;;;;;;5065227;28;20436;-70
2021/07/12 01:29:47;;;;;;;6.67;4.10;;;;;;;;;;5072139;28;20444;-69
2021/07/12 01:32:13;;;;;;;4.57;4.00;;;;;;;;;;5071604;28;20421;-69
2021/07/12 01:34:51;;;;;;;5.20;4.57;;;;;;;;;;5072504;28;20716;-69
2021/07/12 01:37:26;;;;;;;5.30;4.13;;;;;;;;;;5072231;28;20443;-69
2021/07/12 01:40:04;;;;;;;11.30;3.93;;;;;;;;;;5072242;28;20391;-75
2021/07/12 01:42:36;;;;;;;4.90;4.20;;;;;;;;;;5052470;28;20916;-69
2021/07/12 01:45:04;;;;;;;6.33;4.43;;;;;;;;;;5052325;28;20425;-70
2021/07/12 01:47:30;;;;;;;4.90;3.90;;;;;;;;;;5052414;28;20856;-69
2021/07/12 01:49:56;;;;;;;6.80;4.90;;;;;;;;;;5053843;28;20493;-69
2021/07/12 01:52:23;;;;;;;4.40;3.70;;;;;;;;;;5092654;28;20424;-69
2021/07/12 01:54:52;;;;;;;7.47;4.10;;;;;;;;;;5092675;28;20405;-69
2021/07/12 01:57:23;;;;;;;6.13;4.47;;;;;;;;;;5071212;28;20445;-69
2021/07/12 01:59:58;;;;;;;5.53;4.30;;;;;;;;;;5071409;28;20844;-69
2021/07/12 02:02:26;;;;;;;5.20;4.40;;;;;;;;;;5052554;28;20854;-70
2021/07/12 02:04:52;;;;;;;6.70;4.20;;;;;;;;;;5052538;28;20429;-69
2021/07/12 02:07:18;;;;;;;5.87;4.33;;;;;;;;;;5051926;28;20449;-69
2021/07/12 02:09:46;;;;;;;4.87;4.13;;;;;;;;;;5052507;28;20456;-69
2021/07/12 02:12:14;;;;;;;5.10;3.90;;;;;;;;;;5080090;28;20937;-69
2021/07/12 02:14:40;;;;;;;6.20;4.00;;;;;;;;;;5092504;28;20428;-69
2021/07/12 02:17:07;;;;;;;5.10;4.03;;;;;;;;;;5057404;28;20429;-69
2021/07/12 02:19:34;;;;;;;8.87;4.20;;;;;;;;;;5052285;28;20402;-69
2021/07/12 02:22:01;;;;;;;5.27;4.00;;;;;;;;;;5052392;28;20521;-69
2021/07/12 02:24:30;;;;;;;5.93;3.80;;;;;;;;;;5052143;28;20406;-69
2021/07/12 02:26:56;;;;;;;10.00;3.77;;;;;;;;;;5066706;28;20433;-69
2021/07/12 02:29:23;;;;;;;5.80;4.40;;;;;;;;;;5070737;28;20463;-69
2021/07/12 02:31:51;;;;;;;6.43;4.30;;;;;;;;;;5067118;28;20468;-69
2021/07/12 02:34:17;;;;;;;4.60;3.53;;;;;;;;;;5052185;28;20491;-69
2021/07/12 02:36:44;;;;;;;5.00;3.33;;;;;;;;;;5050593;28;20433;-69
2021/07/12 02:39:11;;;;;;;5.43;3.93;;;;;;;;;;5052158;28;20926;-69
2021/07/12 02:41:37;;;;;;;4.40;3.70;;;;;;;;;;5064381;28;20502;-69
2021/07/12 02:44:03;;;;;;;4.90;4.27;;;;;;;;;;5075693;28;20414;-69
2021/07/12 02:46:31;;;;;;;7.27;3.60;;;;;;;;;;5074761;28;21012;-69
2021/07/12 02:48:58;;;;;;;5.33;4.17;;;;;;;;;;5075664;28;20432;-70
2021/07/12 02:51:36;;;;;;;4.40;3.70;;;;;;;;;;5065727;28;20457;-69
2021/07/12 02:54:03;;;;;;;4.70;3.70;;;;;;;;;;5055602;28;20485;-70
2021/07/12 02:56:29;;;;;;;4.07;3.40;;;;;;;;;;5057459;28;20448;-70
2021/07/12 02:58:55;;;;;;;5.83;4.30;;;;;;;;;;5063962;28;20562;-70
2021/07/12 03:01:21;;;;;;;7.17;3.73;;;;;;;;;;5076368;28;20432;-70
2021/07/12 03:03:48;;;;;;;4.37;3.37;;;;;;;;;;5071540;28;21047;-70
2021/07/12 03:06:16;;;;;;;5.03;4.23;;;;;;;;;;5072978;28;20485;-70
2021/07/12 03:08:57;;;;;;;5.17;3.20;;;;;;;;;;5075028;28;20475;-70
2021/07/12 03:11:31;;;;;;;4.40;3.23;;;;;;;;;;5074286;28;20460;-70
2021/07/12 03:14:01;;;;;;;5.90;3.10;;;;;;;;;;5075421;28;20377;-70
2021/07/12 03:16:27;;;;;;;4.13;3.53;;;;;;;;;;5074272;28;20425;-70
2021/07/12 03:18:56;;;;;;;5.03;3.53;;;;;;;;;;5073940;28;20794;-70
2021/07/12 03:21:24;;;;;;;5.03;3.87;;;;;;;;;;5074152;28;20590;-70
2021/07/12 03:23:51;;;;;;;7.90;3.70;;;;;;;;;;5066095;28;20878;-70
2021/07/12 03:26:19;;;;;;;12.00;4.60;;;;;;;;;;5081567;28;20425;-70
2021/07/12 03:28:47;;;;;;;5.30;3.27;;;;;;;;;;5060275;28;21053;-70
2021/07/12 03:31:13;;;;;;;6.03;3.03;;;;;;;;;;5060797;28;20952;-70
2021/07/12 03:33:40;;;;;;;3.80;3.33;;;;;;;;;;5074884;28;20404;-71
2021/07/12 03:36:06;;;;;;;4.30;3.37;;;;;;;;;;5069850;28;20521;-70
2021/07/12 03:38:33;;;;;;;3.60;2.93;;;;;;;;;;5054888;28;20818;-70
2021/07/12 03:41:01;;;;;;;3.43;3.13;;;;;;;;;;5072382;28;20425;-70
2021/07/12 03:43:27;;;;;;;7.43;3.60;;;;;;;;;;5057353;28;20495;-70
2021/07/12 03:46:00;;;;;;;4.33;3.63;;;;;;;;;;5054493;28;20532;-70
2021/07/12 03:48:36;;;;;;;4.50;3.57;;;;;;;;;;5060129;28;20464;-70
2021/07/12 03:51:03;;;;;;;5.60;3.40;;;;;;;;;;5073343;28;20544;-70
2021/07/12 03:53:31;;;;;;;5.77;4.27;;;;;;;;;;5074008;28;20413;-69
2021/07/12 03:55:57;;;;;;;6.53;3.90;;;;;;;;;;5073378;28;20443;-69
2021/07/12 03:58:23;;;;;;;5.20;3.50;;;;;;;;;;5074508;28;20413;-69
2021/07/12 04:00:49;;;;;;;5.57;4.07;;;;;;;;;;5073433;28;20404;-69
2021/07/12 04:03:15;;;;;;;5.97;3.97;;;;;;;;;;5073104;28;20416;-69
2021/07/12 04:05:41;;;;;;;12.53;4.90;;;;;;;;;;5072770;28;20437;-69
2021/07/12 04:08:07;;;;;;;8.20;4.30;;;;;;;;;;5073784;28;20465;-69
2021/07/12 04:10:33;;;;;;;6.70;4.30;;;;;;;;;;5074242;28;20451;-69
2021/07/12 04:12:59;;;;;;;9.83;4.13;;;;;;;;;;5071971;28;20440;-69
2021/07/12 04:15:25;;;;;;;5.30;4.00;;;;;;;;;;5072993;28;20401;-69
2021/07/12 04:17:51;;;;;;;4.80;3.80;;;;;;;;;;5055914;28;20456;-69
2021/07/12 04:20:17;;;;;;;6.10;4.07;;;;;;;;;;5054425;28;20844;-69
2021/07/12 04:22:44;;;;;;;5.87;4.70;;;;;;;;;;5053952;28;20440;-69
2021/07/12 04:25:10;;;;;;;5.07;3.83;;;;;;;;;;5054040;28;20481;-70
2021/07/12 04:27:37;;;;;;;5.67;4.63;;;;;;;;;;5068478;28;20484;-69
2021/07/12 04:30:04;;;;;;;6.90;5.27;;;;;;;;;;5073801;28;20898;-69
2021/07/12 04:32:30;;;;;;;6.43;4.80;;;;;;;;;;5072797;28;20424;-69
2021/07/12 04:34:56;;;;;;;7.97;5.00;;;;;;;;;;5073758;28;20404;-69
2021/07/12 04:37:23;;;;;;;6.80;6.03;;;;;;;;;;5071378;28;20449;-69
2021/07/12 04:39:49;;;;;;;7.47;5.90;;;;;;;;;;5074003;28;20738;-69
2021/07/12 04:42:15;;;;;;;10.27;6.17;;;;;;;;;;5072866;28;20458;-69
2021/07/12 04:44:41;;;;;;;7.87;6.40;;;;;;;;;;5072828;28;20401;-69
2021/07/12 04:47:07;;;;;;;6.97;5.60;;;;;;;;;;5066368;28;20426;-69
2021/07/12 04:49:33;;;;;;;7.83;6.00;;;;;;;;;;5053532;28;20449;-69
2021/07/12 04:51:59;;;;;;;8.57;5.17;;;;;;;;;;5062281;28;20464;-69
2021/07/12 04:54:25;;;;;;;10.00;6.87;;;;;;;;;;5073327;28;20893;-69
2021/07/12 04:56:51;;;;;;;7.83;5.70;;;;;;;;;;5063829;28;20430;-70
2021/07/12 04:59:24;;;;;;;8.10;5.70;;;;;;;;;;5053280;28;20402;-69
2021/07/12 05:01:50;;;;;;;7.50;5.27;;;;;;;;;;5060157;28;20508;-69
2021/07/12 05:04:16;;;;;;;9.90;5.60;;;;;;;;;;5072274;28;20467;-69
2021/07/12 05:06:42;;;;;;;8.23;4.87;;;;;;;;;;5072163;28;20464;-69
2021/07/12 05:09:08;;;;;;;6.40;4.83;;;;;;;;;;5072980;28;20991;-69
2021/07/12 05:11:34;;;;;;;8.63;5.03;;;;;;;;;;5067523;28;20461;-68
2021/07/12 05:14:01;;;;;;;6.10;5.17;;;;;;;;;;5052802;28;20414;-69
2021/07/12 05:16:27;;;;;;;5.47;4.77;;;;;;;;;;5052901;28;20430;-68
2021/07/12 05:18:54;;;;;;;7.73;4.90;;;;;;;;;;5063035;28;20470;-69
2021/07/12 05:21:20;;;;;;;8.43;4.63;;;;;;;;;;5089325;28;21054;-69
2021/07/12 05:23:46;;;;;;;6.17;5.00;;;;;;;;;;5073070;28;20433;-69
2021/07/12 05:26:12;;;;;;;6.10;5.20;;;;;;;;;;5071304;28;20885;-68
2021/07/12 05:28:38;;;;;;;7.00;5.00;;;;;;;;;;5052951;28;20528;-70
2021/07/12 05:31:07;;;;;;;6.27;4.70;;;;;;;;;;5052238;28;20526;-70
2021/07/12 05:33:33;;;;;;;5.20;4.70;;;;;;;;;;5052671;28;20420;-70
2021/07/12 05:35:59;;;;;;;6.30;3.97;;;;;;;;;;5052852;28;20497;-70
2021/07/12 05:38:25;;;;;;;5.57;4.37;;;;;;;;;;5071404;28;20832;-70
2021/07/12 05:40:51;;;;;;;12.73;4.50;;;;;;;;;;5072749;28;20397;-70
2021/07/12 05:43:17;;;;;;;5.00;4.50;;;;;;;;;;5071611;28;20435;-70
2021/07/12 05:45:43;;;;;;;7.43;4.73;;;;;;;;;;5072669;28;20476;-70
2021/07/12 05:48:10;;;;;;;5.43;4.50;;;;;;;;;;5071413;28;20441;-70
2021/07/12 05:50:36;;;;;;;4.43;3.80;;;;;;;;;;5072581;28;20455;-70
2021/07/12 05:53:03;;;;;;;6.10;4.43;;;;;;;;;;5080308;28;20776;-70
2021/07/12 05:55:29;;;;;;;5.33;4.13;;;;;;;;;;5092574;28;20404;-68
2021/07/12 05:57:55;;;;;;;6.10;4.27;;;;;;;;;;5074447;28;20451;-71
2021/07/12 06:00:21;;;;;;;8.23;4.60;;;;;;;;;;5057218;28;20496;-70
2021/07/12 06:02:47;;;;;;;5.00;4.50;;;;;;;;;;5060452;28;20980;-69
2021/07/12 06:05:13;;;;;;;4.77;3.97;;;;;;;;;;5052301;28;20402;-70
2021/07/12 06:07:39;;;;;;;5.03;3.70;;;;;;;;;;5082506;22;20448;-71
2021/07/12 06:10:06;;;;;;;4.90;4.10;;;;;;;;;;5110989;28;20423;-71
2021/07/12 06:12:32;;;;;;;4.00;3.53;;;;;;;;;;5109254;28;20884;-71
2021/07/12 06:14:59;;;;;;;5.97;4.23;;;;;;;;;;5133728;27;20387;-71
2021/07/12 06:17:25;;;;;;;7.37;3.60;;;;;;;;;;5125392;27;20945;-71
2021/07/12 06:19:51;;;;;;;4.03;3.13;;;;;;;;;;5096784;28;20449;-71
2021/07/12 06:22:17;;;;;;;3.87;2.93;;;;;;;;;;5095617;28;20419;-71
2021/07/12 06:24:43;;;;;;;4.10;3.53;;;;;;;;;;5096747;28;20419;-71
2021/07/12 06:27:09;;;;;;;3.43;2.40;;;;;;;;;;5082898;28;20510;-71
2021/07/12 06:29:35;;;;;;;4.87;2.40;;;;;;;;;;5096728;28;20764;-71
2021/07/12 06:32:01;;;;;;;4.00;3.03;;;;;;;;;;5090679;28;20444;-71
2021/07/12 06:34:27;;;;;;;5.43;2.87;;;;;;;;;;5076070;28;20397;-71
2021/07/12 06:36:53;;;;;;;4.97;2.43;;;;;;;;;;5076444;28;20437;-71
2021/07/12 06:39:19;;;;;;;4.13;2.20;;;;;;;;;;5076655;28;20432;-71
2021/07/12 06:41:45;;;;;;;4.33;2.90;;;;;;;;;;5078342;28;20423;-71
2021/07/12 06:44:11;;;;;;;5.87;3.30;;;;;;;;;;5092621;28;20487;-71
2021/07/12 06:46:37;;;;;;;4.50;3.33;;;;;;;;;;5077709;28;20402;-71
2021/07/12 06:49:04;;;;;;;5.67;2.50;;;;;;;;;;5096244;28;20407;-71
2021/07/12 06:51:30;;;;;;;3.03;1.80;;;;;;;;;;5094910;28;20962;-71
2021/07/12 06:53:56;;;;;;;3.07;1.57;;;;;;;;;;5075927;28;20413;-71
2021/07/12 06:56:22;;;;;;;7.63;3.00;;;;;;;;;;5075490;28;20417;-71
2021/07/12 06:58:49;;;;;;;7.10;3.17;;;;;;;;;;5091296;28;20860;-71
2021/07/12 07:01:15;;;;;;;6.80;3.73;;;;;;;;;;5097886;28;20872;-71
2021/07/12 07:03:41;;;;;;;8.10;4.53;;;;;;;;;;5086170;28;20420;-71
2021/07/12 07:06:07;;;;;;;5.37;3.60;;;;;;;;;;5084652;28;20409;-71
2021/07/12 07:08:33;;;;;;;2.97;1.83;;;;;;;;;;5082041;28;20464;-72
2021/07/12 07:10:59;;;;;;;3.73;2.17;;;;;;;;;;5086778;28;20486;-71
2021/07/12 07:13:25;;;;;;;4.07;2.40;;;;;;;;;;5088241;28;20950;-71
2021/07/12 07:15:51;;;;;;;3.60;2.67;;;;;;;;;;5094138;28;20412;-71
2021/07/12 07:18:18;;;;;;;2.93;1.83;;;;;;;;;;5091410;28;20456;-71
2021/07/12 07:20:44;;;;;;;3.30;2.17;;;;;;;;;;5094687;28;20421;-71
2021/07/12 07:23:10;;;;;;;4.00;2.17;;;;;;;;;;5094012;28;20431;-71
2021/07/12 07:25:36;;;;;;;3.10;1.90;;;;;;;;;;5094356;28;20427;-71
2021/07/12 07:28:03;;;;;;;2.20;1.67;;;;;;;;;;5089608;28;20496;-71
2021/07/12 07:30:29;;;;;;;2.80;2.10;;;;;;;;;;5090359;28;20834;-71
2021/07/12 07:32:55;;;;;;;3.40;2.10;;;;;;;;;;5092448;28;20794;-72
2021/07/12 07:35:21;;;;;;;2.93;1.90;;;;;;;;;;5094401;28;20428;-71
2021/07/12 07:37:48;;;;;;;2.70;1.80;;;;;;;;;;5092022;28;20444;-71
2021/07/12 07:40:15;;;;;;;2.67;1.97;;;;;;;;;;5077500;28;20405;-71
2021/07/12 07:42:41;;;;;;;2.33;1.70;;;;;;;;;;5083847;28;20416;-71
2021/07/12 07:45:09;;;;;;;2.87;1.97;;;;;;;;;;5093435;28;20435;-71
2021/07/12 07:47:35;;;;;;;2.40;1.60;;;;;;;;;;5092337;28;20433;-71
2021/07/12 07:50:01;;;;;;;4.27;1.67;;;;;;;;;;5095092;28;20404;-71
2021/07/12 07:52:27;;;;;;;2.97;1.60;;;;;;;;;;5089912;28;20498;-71
2021/07/12 07:54:53;;;;;;;3.80;1.70;;;;;;;;;;5086889;28;20889;-71
2021/07/12 07:57:20;;;;;;;2.53;1.40;;;;;;;;;;5084468;28;20460;-72
2021/07/12 07:59:46;;;;;;;2.60;1.40;;;;;;;;;;5090487;28;20771;-71
2021/07/12 08:02:12;;;;;;;2.70;1.70;;;;;;;;;;5092480;28;20659;-72
2021/07/12 08:04:38;;;;;;;5.07;1.93;;;;;;;;;;5092311;28;20915;-71
2021/07/12 08:07:06;;;;;;;2.53;1.50;;;;;;;;;;5090887;28;20422;-72
2021/07/12 08:09:32;;;;;;;2.07;1.37;;;;;;;;;;5092050;28;20546;-71
2021/07/12 08:11:58;;;;;;;2.40;1.63;;;;;;;;;;5092909;28;20947;-71
2021/07/12 08:14:24;;;;;;;3.67;1.70;;;;;;;;;;5090180;28;20455;-73
2021/07/12 08:16:50;;;;;;;4.50;1.63;;;;;;;;;;5110150;28;20435;-72
2021/07/12 08:19:17;;;;;;;2.70;1.67;;;;;;;;;;5087777;28;20443;-72
2021/07/12 08:21:43;;;;;;;3.80;1.50;;;;;;;;;;5093261;28;20447;-72
2021/07/12 08:24:10;;;;;;;4.27;1.43;;;;;;;;;;5089850;28;20545;-72
2021/07/12 08:26:36;;;;;;;7.10;1.40;;;;;;;;;;5085024;28;20794;-72
2021/07/12 08:29:02;;;;;;;1.90;1.20;;;;;;;;;;5090398;28;20439;-72
2021/07/12 08:31:28;;;;;;;2.60;1.63;;;;;;;;;;5093838;28;20452;-72
2021/07/12 08:33:54;;;;;;;3.30;1.50;;;;;;;;;;5093333;28;20424;-72
2021/07/12 08:36:23;;;;;;;2.97;1.53;;;;;;;;;;5093562;28;20416;-71
2021/07/12 08:38:49;;;;;;;3.97;1.80;;;;;;;;;;5091915;28;20449;-71
2021/07/12 08:41:15;;;;;;;3.30;1.37;;;;;;;;;;5092948;28;20424;-71
2021/07/12 08:43:41;;;;;;;2.40;1.60;;;;;;;;;;5086468;28;20448;-71
2021/07/12 08:46:08;;;;;;;2.30;1.40;;;;;;;;;;5073503;28;20404;-71
2021/07/12 08:48:34;;;;;;;2.00;1.30;;;;;;;;;;5084829;28;20457;-71
2021/07/12 08:51:00;;;;;;;2.40;1.67;;;;;;;;;;5092950;28;20539;-71
2021/07/12 08:53:26;;;;;;;2.20;1.53;;;;;;;;;;5092651;28;20473;-72
2021/07/12 08:55:52;;;;;;;2.00;1.37;;;;;;;;;;5086418;28;20900;-72
2021/07/12 08:58:23;;;;;;;1.80;1.17;;;;;;;;;;5091070;28;20439;-72
2021/07/12 09:00:53;;;;;;;2.20;1.50;;;;;;;;;;5080563;28;20876;-72
2021/07/12 09:03:23;;;;;;;2.40;1.57;;;;;;;;;;5084280;28;20511;-72
2021/07/12 09:05:56;;;;;;;5.20;1.50;;;;;;;;;;5086708;28;20430;-72
2021/07/12 09:08:37;;;;;;;3.20;1.67;;;;;;;;;;5073025;28;20474;-72
2021/07/12 09:11:07;;;;;;;2.47;1.70;;;;;;;;;;5086054;28;20531;-72
2021/07/12 09:13:47;;;;;;;3.23;1.70;;;;;;;;;;5090771;28;20428;-72
2021/07/12 09:16:30;;;;;;;2.40;1.87;;;;;;;;;;5089471;28;20415;-72
2021/07/12 09:19:03;;;;;;;2.63;1.60;;;;;;;;;;5085016;28;20439;-72
2021/07/12 09:21:37;;;;;;;2.70;1.37;;;;;;;;;;5085163;28;20492;-72
2021/07/12 09:24:16;;;;;;;2.67;1.50;;;;;;;;;;5078384;28;20446;-71
2021/07/12 09:26:43;;;;;;;5.17;1.43;;;;;;;;;;5090107;28;20404;-73
2021/07/12 09:29:16;;;;;;;6.77;1.77;;;;;;;;;;5088275;28;20520;-71
2021/07/12 09:31:43;;;;;;;8.30;1.70;;;;;;;;;;5092681;28;20479;-72
2021/07/12 09:34:09;;;;;;;6.33;1.50;;;;;;;;;;5085937;28;20428;-71
2021/07/12 09:36:35;;;;;;;3.13;1.37;;;;;;;;;;5090023;28;20920;-72
2021/07/12 09:39:17;;;;;;;1.93;1.17;;;;;;;;;;5090093;28;20451;-72
2021/07/12 09:41:43;;;;;;;2.47;1.30;;;;;;;;;;5102025;28;20422;-71
2021/07/12 09:44:10;;;;;;;2.20;1.30;;;;;;;;;;5100265;28;20433;-71
2021/07/12 09:46:36;;;;;;;2.90;1.60;;;;;;;;;;5092234;28;20416;-71
2021/07/12 09:49:12;;;;;;;3.10;1.63;;;;;;;;;;5091159;28;20451;-71
2021/07/12 09:51:38;;;;;;;2.20;1.43;;;;;;;;;;5090928;28;20473;-71
2021/07/12 09:54:23;;;;;;;2.50;1.50;;;;;;;;;;5077931;28;20864;-71
2021/07/12 09:56:50;;;;;;;6.00;1.80;;;;;;;;;;5095759;28;20522;-71
2021/07/12 09:59:17;;;;;;;2.00;1.33;;;;;;;;;;5085359;28;20442;-71
2021/07/12 10:01:51;;;;;;;2.87;1.70;;;;;;;;;;5080242;28;20424;-72
2021/07/12 10:04:17;;;;;;;3.60;1.50;;;;;;;;;;5081786;28;20781;-72
2021/07/12 10:06:44;;;;;;;3.23;1.90;;;;;;;;;;5088325;28;20465;-72
2021/07/12 10:09:11;;;;;;;3.10;2.00;;;;;;;;;;5091312;28;20475;-72
2021/07/12 10:11:37;;;;;;;3.40;1.80;;;;;;;;;;5090682;28;20459;-72
2021/07/12 10:14:04;;;;;;;2.27;1.67;;;;;;;;;;5079633;28;20785;-72
2021/07/12 10:16:30;;;;;;;4.23;1.60;;;;;;;;;;5087769;28;20827;-72
2021/07/12 10:18:56;;;;;;;3.00;1.73;;;;;;;;;;5091990;28;20530;-72
2021/07/12 10:21:23;;;;;;;2.03;1.53;;;;;;;;;;5093664;28;20428;-72
2021/07/12 10:23:55;;;;;;;2.97;1.63;;;;;;;;;;5100815;28;20427;-71
2021/07/12 10:26:40;;;;;;;2.70;1.67;;;;;;;;;;5092670;28;20943;-72
2021/07/12 10:29:10;;;;;;;4.50;1.40;;;;;;;;;;5090148;28;20882;-72
2021/07/12 10:31:36;;;;;;;3.03;1.70;;;;;;;;;;5085612;28;20981;-72
2021/07/12 10:34:22;;;;;;;2.50;1.77;;;;;;;;;;5081987;28;20428;-72
2021/07/12 10:36:57;;;;;;;2.83;1.50;;;;;;;;;;5088733;28;20472;-72
2021/07/12 10:39:23;;;;;;;2.10;1.40;;;;;;;;;;5087810;28;20478;-72
2021/07/12 10:41:49;;;;;;;2.13;1.30;;;;;;;;;;5091558;28;20400;-71
2021/07/12 10:44:15;;;;;;;2.00;1.40;;;;;;;;;;5090415;28;20419;-72
2021/07/12 10:46:42;;;;;;;2.47;1.37;;;;;;;;;;5090187;28;20407;-73
2021/07/12 10:49:26;;;;;;;3.17;1.37;;;;;;;;;;5085956;28;20439;-72
2021/07/12 10:51:52;;;;;;;2.10;1.47;;;;;;;;;;5089606;28;20466;-72
2021/07/12 10:54:20;;;;;;;2.67;1.53;;;;;;;;;;5091121;28;20415;-72
2021/07/12 10:57:00;;;;;;;4.17;1.60;;;;;;;;;;5091283;28;20395;-71
2021/07/12 10:59:30;;;;;;;2.53;1.50;;;;;;;;;;5087227;28;20775;-72
2021/07/12 11:01:58;;;;;;;2.50;1.63;;;;;;;;;;5091539;28;20514;-72
2021/07/12 11:04:31;;;;;;;6.17;1.70;;;;;;;;;;5097872;28;20420;-71
2021/07/12 11:06:57;;;;;;;5.60;1.80;;;;;;;;;;5086138;28;20412;-71
2021/07/12 11:09:42;;;;;;;2.33;1.60;;;;;;;;;;5094184;28;20541;-71
2021/07/12 11:12:26;;;;;;;3.03;1.50;;;;;;;;;;5090333;28;20452;-71
2021/07/12 11:15:05;;;;;;;8.83;1.80;;;;;;;;;;5097351;28;20766;-71
2021/07/12 11:17:50;;;;;;;2.30;1.60;;;;;;;;;;5093454;28;20575;-71
2021/07/12 11:20:16;;;;;;;3.47;2.37;;;;;;;;;;5093880;28;20523;-71
2021/07/12 11:22:52;;;;;;;2.83;1.80;;;;;;;;;;5094793;28;20976;-72
2021/07/12 11:25:37;;;;;;;2.50;1.17;;;;;;;;;;5093978;28;20926;-71
2021/07/12 11:28:09;;;;;;;2.57;1.60;;;;;;;;;;5094031;28;20951;-71
2021/07/12 11:30:35;;;;;;;2.00;1.30;;;;;;;;;;5093431;28;20955;-71
2021/07/12 11:33:02;;;;;;;3.27;1.30;;;;;;;;;;5095352;28;20410;-71
2021/07/12 11:35:28;;;;;;;3.50;1.57;;;;;;;;;;5092292;28;20433;-72
2021/07/12 11:38:01;;;;;;;1.80;1.30;;;;;;;;;;5099181;28;20439;-71
2021/07/12 11:40:27;;;;;;;4.00;1.80;;;;;;;;;;5099940;28;20475;-71
2021/07/12 11:42:53;;;;;;;3.10;1.80;;;;;;;;;;5081932;28;20764;-71
2021/07/12 11:45:20;;;;;;;3.47;1.60;;;;;;;;;;5081035;28;20803;-71
2021/07/12 11:47:55;;;;;;;4.63;1.70;;;;;;;;;;5094625;28;20443;-71
2021/07/12 11:50:21;;;;;;;2.80;1.80;;;;;;;;;;5092641;28;20488;-71
2021/07/12 11:52:49;;;;;;;3.53;1.70;;;;;;;;;;5094291;28;20407;-71
2021/07/12 11:55:29;;;;;;;2.97;1.80;;;;;;;;;;5093627;28;20439;-71
2021/07/12 11:57:57;;;;;;;2.73;1.90;;;;;;;;;;5092906;28;20446;-71
2021/07/12 12:00:24;;;;;;;3.17;1.90;;;;;;;;;;5093376;28;20426;-71
2021/07/12 12:03:01;;;;;;;2.83;1.73;;;;;;;;;;5087485;28;20405;-71
2021/07/12 12:05:28;;;;;;;4.10;1.90;;;;;;;;;;5079651;28;20965;-71
2021/07/12 12:07:57;;;;;;;7.50;2.10;;;;;;;;;;5115427;22;20458;-69
2021/07/12 12:10:27;;;;;;;3.67;1.90;;;;;;;;;;5088567;28;20443;-69
2021/07/12 12:12:53;;;;;;;6.40;1.87;;;;;;;;;;5073570;28;20411;-69
2021/07/12 12:15:36;;;;;;;3.33;1.77;;;;;;;;;;5078010;28;20423;-69
2021/07/12 12:18:04;;;;;;;5.87;2.50;;;;;;;;;;5075103;28;20824;-69
2021/07/12 12:20:35;;;;;;;3.00;2.07;;;;;;;;;;5082396;28;20433;-69
2021/07/12 12:23:01;;;;;;;2.20;1.70;;;;;;;;;;5094567;28;20404;-69
2021/07/12 12:25:28;;;;;;;4.30;1.47;;;;;;;;;;5088118;28;20527;-69
2021/07/12 12:27:54;;;;;;;2.20;1.50;;;;;;;;;;5073128;28;20537;-69
2021/07/12 12:30:20;;;;;;;3.80;1.80;;;;;;;;;;5072488;28;20475;-68
2021/07/12 12:32:57;;;;;;;2.73;1.60;;;;;;;;;;5073898;28;20405;-69
2021/07/12 12:35:24;;;;;;;6.93;2.07;;;;;;;;;;5071779;28;20424;-69
2021/07/12 12:37:52;;;;;;;3.30;1.80;;;;;;;;;;5055745;28;20416;-69
2021/07/12 12:40:18;;;;;;;2.77;2.20;;;;;;;;;;5072398;28;20889;-69
2021/07/12 12:42:45;;;;;;;2.30;1.97;;;;;;;;;;5073164;28;20504;-69
2021/07/12 12:45:12;;;;;;;3.30;2.50;;;;;;;;;;5072436;28;20476;-69
2021/07/12 12:47:44;;;;;;;2.97;2.43;;;;;;;;;;5079095;28;20436;-69
2021/07/12 12:50:11;;;;;;;4.70;2.50;;;;;;;;;;5075458;28;20415;-69
2021/07/12 12:52:37;;;;;;;3.63;2.47;;;;;;;;;;5072279;28;20432;-68
2021/07/12 12:55:11;;;;;;;2.77;2.13;;;;;;;;;;5071678;28;20440;-69
2021/07/12 12:57:40;;;;;;;4.93;2.13;;;;;;;;;;5072318;28;20417;-68
2021/07/12 13:00:11;;;;;;;2.70;2.17;;;;;;;;;;5072438;28;20484;-68
2021/07/12 13:02:41;;;;;;;3.00;2.27;;;;;;;;;;5072875;28;20764;-69
2021/07/12 13:05:08;;;;;;;3.20;2.27;;;;;;;;;;5052137;28;20516;-68
2021/07/12 13:07:44;;;;;;;3.03;2.10;;;;;;;;;;5069877;28;20785;-68
2021/07/12 13:10:10;;;;;;;3.40;1.97;;;;;;;;;;5071572;28;20435;-69
2021/07/12 13:12:47;;;;;;;2.67;2.20;;;;;;;;;;5072860;28;20408;-68
2021/07/12 13:15:15;;;;;;;5.30;2.30;;;;;;;;;;5075022;28;20899;-69
2021/07/12 13:17:41;;;;;;;3.97;2.37;;;;;;;;;;5053158;28;20491;-68
2021/07/12 13:20:08;;;;;;;4.30;2.23;;;;;;;;;;5065552;28;20409;-69
2021/07/12 13:22:36;;;;;;;5.30;2.60;;;;;;;;;;5072803;28;20408;-69
2021/07/12 13:25:23;;;;;;;3.73;2.70;;;;;;;;;;5073946;28;20439;-68
2021/07/12 13:27:49;;;;;;;3.33;2.10;;;;;;;;;;5090810;28;20429;-69
2021/07/12 13:30:16;;;;;;;3.20;2.47;;;;;;;;;;5090208;28;20490;-69
2021/07/12 13:32:46;;;;;;;2.60;1.87;;;;;;;;;;5072744;28;20409;-69
2021/07/12 13:35:13;;;;;;;2.80;2.50;;;;;;;;;;5071817;28;20446;-69
2021/07/12 13:37:39;;;;;;;4.00;2.47;;;;;;;;;;5057680;28;20470;-68
2021/07/12 13:40:06;;;;;;;3.07;2.30;;;;;;;;;;5073441;28;20916;-68
2021/07/12 13:42:32;;;;;;;5.30;2.27;;;;;;;;;;5071473;28;20420;-68
2021/07/12 13:44:58;;;;;;;4.43;2.40;;;;;;;;;;5054609;28;20458;-68
2021/07/12 13:47:25;;;;;;;2.73;1.97;;;;;;;;;;5071671;28;20901;-68
2021/07/12 13:49:51;;;;;;;6.50;2.50;;;;;;;;;;5072151;28;20436;-68
2021/07/12 13:52:17;;;;;;;3.90;2.07;;;;;;;;;;5071243;28;20448;-67
2021/07/12 13:54:44;;;;;;;2.70;2.07;;;;;;;;;;5072503;28;20501;-68
2021/07/12 13:57:10;;;;;;;3.27;2.20;;;;;;;;;;5070616;28;20423;-68
2021/07/12 13:59:43;;;;;;;4.27;2.00;;;;;;;;;;5062256;28;20490;-68
2021/07/12 14:02:16;;;;;;;4.67;2.10;;;;;;;;;;5067467;28;20772;-68
2021/07/12 14:04:43;;;;;;;3.57;2.37;;;;;;;;;;5072001;28;20417;-68
2021/07/12 14:07:09;;;;;;;2.93;2.03;;;;;;;;;;5070107;28;20431;-68
2021/07/12 14:09:35;;;;;;;3.77;1.70;;;;;;;;;;5052643;28;20441;-68
2021/07/12 14:12:02;;;;;;;2.40;1.90;;;;;;;;;;5068681;28;20459;-68
2021/07/12 14:14:29;;;;;;;2.43;1.80;;;;;;;;;;5061089;28;20782;-68
2021/07/12 14:16:55;;;;;;;2.63;2.00;;;;;;;;;;5070861;28;20503;-68
2021/07/12 14:19:21;;;;;;;2.93;1.80;;;;;;;;;;5071323;28;20572;-68
2021/07/12 14:21:47;;;;;;;3.10;1.97;;;;;;;;;;5069045;28;20785;-68
2021/07/12 14:24:13;;;;;;;2.30;1.60;;;;;;;;;;5070394;28;20428;-68
2021/07/12 14:26:40;;;;;;;2.53;1.90;;;;;;;;;;5069878;28;20777;-68
2021/07/12 14:29:08;;;;;;;2.63;1.87;;;;;;;;;;5070863;28;20440;-69
2021/07/12 14:31:34;;;;;;;3.20;1.90;;;;;;;;;;5054508;28;20559;-69
2021/07/12 14:34:00;;;;;;;2.80;1.87;;;;;;;;;;5072230;28;20420;-69
2021/07/12 14:36:26;;;;;;;2.73;1.90;;;;;;;;;;5071460;28;20428;-69
2021/07/12 14:38:53;;;;;;;2.20;1.60;;;;;;;;;;5076350;28;20796;-68
2021/07/12 14:41:19;;;;;;;3.23;1.70;;;;;;;;;;5067721;28;20435;-68
2021/07/12 14:43:47;;;;;;;3.30;1.80;;;;;;;;;;5067311;28;20421;-68
2021/07/12 14:46:13;;;;;;;2.10;1.37;;;;;;;;;;5063701;28;20462;-68
2021/07/12 14:48:39;;;;;;;2.13;1.40;;;;;;;;;;5075152;28;21001;-68
2021/07/12 14:51:05;;;;;;;2.90;1.63;;;;;;;;;;5073287;28;20456;-68